Terminal Aerodrome Forecast
Issued by NWS

Home | Current Version | Previous Version | Text Only | Print | Product List | Glossary On
Versions: 1 2 3 4 5 6 7 8 9 10 11 12 13 14 15
265
FTUS46 KSEW 102332
TAFBLI
TAF
KBLI 102332Z 1100/1124 15015G27KT P6SM -SHRA BKN025 BKN080
     FM110200 16005KT P6SM VCSH BKN035 BKN070
     FM111500 01005KT P6SM SCT030 OVC070
     FM112300 03006KT P6SM -RA OVC050=

USA.gov is the U.S. government's official web portal to all federal, state and local government web resources and services.